createdAt,value
2019-05-23T00:00:38.039Z,99.90
2019-05-23T00:03:07.632Z,99.90
2019-05-23T00:05:58.141Z,99.90
2019-05-23T00:08:29.307Z,99.90
2019-05-23T00:11:16.117Z,99.90
2019-05-23T00:13:57.493Z,99.90
2019-05-23T00:16:28.833Z,99.90
2019-05-23T00:18:58.548Z,99.90
2019-05-23T00:21:28.448Z,99.90
2019-05-23T00:23:58.136Z,99.90
2019-05-23T00:26:27.493Z,99.90
2019-05-23T00:29:09.681Z,99.90
2019-05-23T00:31:32.727Z,99.90
2019-05-23T00:34:01.740Z,99.90
2019-05-23T00:36:31.668Z,99.90
2019-05-23T00:39:01.831Z,99.90
2019-05-23T00:41:32.288Z,99.90
2019-05-23T00:44:01.785Z,99.90
2019-05-23T00:46:31.345Z,99.90
2019-05-23T00:49:01.490Z,99.90
2019-05-23T00:51:31.694Z,99.90
2019-05-23T00:54:01.578Z,99.90
2019-05-23T00:56:31.501Z,99.90
2019-05-23T00:59:01.585Z,99.90
2019-05-23T01:01:31.794Z,99.90
2019-05-23T01:04:01.202Z,99.90
2019-05-23T01:06:30.929Z,99.90
2019-05-23T01:09:00.412Z,99.90
2019-05-23T01:11:29.393Z,99.90
2019-05-23T01:13:59.319Z,99.90
2019-05-23T01:16:30.541Z,99.90
2019-05-23T01:18:59.918Z,99.90
2019-05-23T01:21:47.172Z,99.90
2019-05-23T01:24:22.221Z,99.90
2019-05-23T01:26:51.779Z,99.90
2019-05-23T01:29:22.224Z,99.90
2019-05-23T01:31:53.944Z,99.90
2019-05-23T01:34:25.179Z,99.90
2019-05-23T01:36:55.748Z,99.90
2019-05-23T01:39:24.652Z,99.90
2019-05-23T01:41:53.926Z,99.90
2019-05-23T01:44:23.734Z,99.90
2019-05-23T01:46:52.925Z,99.90
2019-05-23T01:49:22.525Z,99.90
2019-05-23T01:51:51.922Z,99.90
2019-05-23T01:54:21.983Z,99.90
2019-05-23T01:56:51.598Z,99.90
2019-05-23T01:59:20.677Z,99.90
2019-05-23T02:01:49.961Z,99.90
2019-05-23T02:04:19.769Z,99.90
2019-05-23T02:06:48.796Z,99.90
2019-05-23T02:09:19.243Z,99.90
2019-05-23T02:11:49.314Z,99.90
2019-05-23T02:14:19.726Z,99.90
2019-05-23T02:16:49.638Z,99.90
2019-05-23T02:19:19.757Z,99.90
2019-05-23T02:21:50.161Z,99.90
2019-05-23T02:24:20.793Z,99.90
2019-05-23T02:26:50.120Z,99.90
2019-05-23T02:29:20.390Z,99.90
2019-05-23T02:31:49.394Z,99.90
2019-05-23T02:34:19.718Z,99.90
2019-05-23T02:36:49.731Z,99.90
2019-05-23T02:39:37.622Z,99.90
2019-05-23T02:42:28.540Z,99.90
2019-05-23T02:44:58.368Z,99.90
2019-05-23T02:47:41.677Z,99.90
2019-05-23T02:50:17.035Z,99.90
2019-05-23T02:52:51.327Z,99.90
2019-05-23T02:55:28.370Z,99.90
2019-05-23T02:58:03.473Z,99.90
2019-05-23T03:00:54.210Z,99.90
2019-05-23T03:03:23.961Z,99.90
2019-05-23T03:05:53.203Z,99.90
2019-05-23T03:08:23.765Z,99.90
2019-05-23T03:10:58.117Z,99.90
2019-05-23T03:13:32.328Z,99.90
2019-05-23T03:16:01.919Z,99.90
2019-05-23T03:18:35.144Z,99.90
2019-05-23T03:21:06.072Z,99.90
2019-05-23T03:23:35.430Z,99.90
2019-05-23T03:26:55.777Z,99.90
2019-05-23T03:29:24.995Z,99.90
2019-05-23T03:31:59.917Z,99.90
2019-05-23T03:34:32.886Z,99.90
2019-05-23T03:37:01.986Z,99.90
2019-05-23T03:39:31.625Z,99.90
2019-05-23T03:42:00.546Z,99.90
2019-05-23T03:44:30.012Z,99.90
2019-05-23T03:47:00.216Z,99.90
2019-05-23T03:49:31.347Z,99.90
2019-05-23T03:52:01.057Z,99.90
2019-05-23T03:54:29.953Z,99.90
2019-05-23T03:56:59.979Z,99.90
2019-05-23T03:59:31.312Z,99.90
2019-05-23T04:02:02.002Z,99.90
2019-05-23T04:04:31.990Z,99.90
2019-05-23T04:07:01.314Z,99.90
2019-05-23T04:09:30.217Z,99.90
2019-05-23T04:11:59.559Z,99.90
2019-05-23T04:14:28.562Z,99.90
2019-05-23T04:16:58.366Z,99.90
2019-05-23T04:19:27.745Z,99.90
2019-05-23T04:21:57.810Z,99.90
2019-05-23T04:24:27.018Z,99.90
2019-05-23T04:26:56.015Z,99.90
2019-05-23T04:29:25.807Z,99.90
2019-05-23T04:32:06.866Z,99.90
2019-05-23T04:34:25.860Z,99.90
2019-05-23T04:36:54.773Z,99.90
2019-05-23T04:39:24.850Z,99.90
2019-05-23T04:41:54.043Z,99.90
2019-05-23T04:44:23.117Z,99.90
2019-05-23T04:46:53.182Z,99.90
2019-05-23T04:49:22.502Z,99.90
2019-05-23T04:51:52.686Z,99.90
2019-05-23T04:54:22.807Z,99.90
2019-05-23T04:56:51.638Z,99.90
2019-05-23T04:59:20.554Z,99.90
2019-05-23T05:01:50.641Z,99.90
2019-05-23T05:04:20.112Z,99.90
2019-05-23T05:06:49.292Z,99.90
2019-05-23T05:09:27.826Z,99.90
2019-05-23T05:11:57.520Z,99.90
2019-05-23T05:14:27.563Z,99.90
2019-05-23T05:16:56.917Z,99.90
2019-05-23T05:19:27.166Z,99.90
2019-05-23T05:21:56.529Z,99.90
2019-05-23T05:24:25.653Z,99.90
2019-05-23T05:26:54.590Z,99.90
2019-05-23T05:29:23.515Z,99.90
2019-05-23T05:31:52.602Z,99.90
2019-05-23T05:34:21.934Z,99.90
2019-05-23T05:36:50.842Z,99.90
2019-05-23T05:39:19.770Z,99.90
2019-05-23T05:41:48.928Z,99.90
2019-05-23T05:44:18.425Z,99.90
2019-05-23T05:46:47.912Z,99.90
2019-05-23T05:49:17.373Z,99.90
2019-05-23T05:51:46.285Z,99.90
2019-05-23T05:54:15.286Z,99.90
2019-05-23T05:56:44.535Z,99.90
2019-05-23T05:59:13.722Z,99.90
2019-05-23T06:01:43.419Z,99.90
2019-05-23T06:04:12.268Z,99.90
2019-05-23T06:06:49.970Z,99.90
2019-05-23T06:09:21.454Z,99.90
2019-05-23T06:11:50.367Z,99.90
2019-05-23T06:14:19.449Z,99.90
2019-05-23T06:16:49.242Z,99.90
2019-05-23T06:19:18.589Z,99.90
2019-05-23T06:21:47.916Z,99.90
2019-05-23T06:24:16.920Z,99.90
2019-05-23T06:26:46.064Z,99.90
2019-05-23T06:29:15.447Z,99.90
2019-05-23T06:31:45.192Z,99.90
2019-05-23T06:34:15.501Z,99.90
2019-05-23T06:36:44.598Z,99.90
2019-05-23T06:39:15.646Z,99.90
2019-05-23T06:41:44.845Z,99.90
2019-05-23T06:44:15.716Z,99.90
2019-05-23T06:46:45.281Z,99.90
2019-05-23T06:49:14.477Z,99.90
2019-05-23T06:51:43.379Z,99.90
2019-05-23T06:54:12.816Z,99.90
2019-05-23T06:56:42.092Z,99.90
2019-05-23T06:59:11.136Z,99.90
2019-05-23T07:01:40.371Z,99.90
2019-05-23T07:04:09.925Z,99.90
2019-05-23T07:06:38.761Z,99.90
2019-05-23T07:09:12.497Z,99.90
2019-05-23T07:11:41.408Z,99.90
2019-05-23T07:14:11.857Z,99.90
2019-05-23T07:16:41.289Z,99.90
2019-05-23T07:19:10.205Z,99.90
2019-05-23T07:21:39.630Z,99.90
2019-05-23T07:24:08.630Z,99.90
2019-05-23T07:26:37.503Z,99.90
2019-05-23T07:29:08.785Z,99.90
2019-05-23T07:31:38.428Z,99.90
2019-05-23T07:34:07.425Z,99.90
2019-05-23T07:36:36.683Z,99.90
2019-05-23T07:39:11.346Z,99.90
2019-05-23T07:41:38.501Z,99.90
2019-05-23T07:44:07.634Z,99.90
2019-05-23T07:46:37.530Z,99.90
2019-05-23T07:49:06.544Z,99.90
2019-05-23T07:51:35.810Z,99.90
2019-05-23T07:54:12.108Z,99.90
2019-05-23T07:56:41.682Z,99.90
2019-05-23T07:59:10.592Z,99.90
2019-05-23T08:01:42.188Z,99.90
2019-05-23T08:04:21.372Z,99.90
2019-05-23T08:06:42.121Z,99.90
2019-05-23T08:09:11.687Z,99.90
2019-05-23T08:11:40.901Z,98.90
2019-05-23T08:14:11.954Z,97.20
2019-05-23T08:16:41.825Z,96.70
2019-05-23T08:19:10.930Z,94.90
2019-05-23T08:21:39.773Z,94.50
2019-05-23T08:24:09.557Z,91.60
2019-05-23T08:26:39.061Z,93.20
2019-05-23T08:29:26.341Z,90.80
2019-05-23T08:31:39.269Z,88.50
2019-05-23T08:34:09.069Z,87.10
2019-05-23T08:36:38.470Z,82.60
2019-05-23T08:39:08.606Z,85.30
2019-05-23T08:41:37.959Z,85.60
2019-05-23T08:44:11.162Z,77.90
2019-05-23T08:46:38.119Z,79.60
2019-05-23T08:49:08.885Z,74.30
2019-05-23T08:51:38.083Z,77.80
2019-05-23T08:54:07.422Z,74.00
2019-05-23T08:56:37.590Z,74.50
2019-05-23T08:59:07.461Z,74.30
2019-05-23T09:01:37.525Z,72.80
2019-05-23T09:04:06.781Z,68.90
2019-05-23T09:06:35.798Z,69.00
2019-05-23T09:09:27.645Z,68.80
2019-05-23T09:11:39.229Z,66.80
2019-05-23T09:14:08.847Z,69.70
2019-05-23T09:16:39.238Z,69.30
2019-05-23T09:19:08.629Z,63.70
2019-05-23T09:21:37.972Z,67.00
2019-05-23T09:24:07.890Z,65.80
2019-05-23T09:26:37.089Z,63.60
2019-05-23T09:29:07.300Z,64.20
2019-05-23T09:31:36.504Z,58.30
2019-05-23T09:34:06.112Z,61.50
2019-05-23T09:36:35.196Z,63.00
2019-05-23T09:39:08.057Z,58.80
2019-05-23T09:41:37.393Z,59.10
2019-05-23T09:44:06.956Z,60.40
2019-05-23T09:46:35.975Z,61.00
2019-05-23T09:49:05.691Z,56.40
2019-05-23T09:51:34.604Z,58.20
2019-05-23T09:54:03.717Z,58.30
2019-05-23T09:56:32.853Z,54.60
2019-05-23T09:59:01.790Z,56.50
2019-05-23T10:01:30.703Z,57.10
2019-05-23T10:03:59.701Z,56.50
2019-05-23T10:06:28.687Z,55.10
2019-05-23T10:08:57.758Z,54.80
2019-05-23T10:11:26.745Z,54.40
2019-05-23T10:13:55.878Z,57.30
2019-05-23T10:16:24.913Z,58.90
2019-05-23T10:18:54.389Z,55.40
2019-05-23T10:21:23.403Z,54.40
2019-05-23T10:23:52.252Z,56.90
2019-05-23T10:26:21.457Z,57.00
2019-05-23T10:28:50.515Z,56.50
2019-05-23T10:31:20.401Z,52.90
2019-05-23T10:33:49.328Z,56.50
2019-05-23T10:36:18.837Z,54.20
2019-05-23T10:38:47.760Z,53.30
2019-05-23T10:41:16.745Z,53.20
2019-05-23T10:43:46.018Z,55.20
2019-05-23T10:46:15.520Z,55.60
2019-05-23T10:48:44.462Z,55.60
2019-05-23T10:51:13.376Z,54.50
2019-05-23T10:53:42.230Z,53.00
2019-05-23T10:56:12.159Z,54.10
2019-05-23T10:58:41.718Z,52.70
2019-05-23T11:01:12.761Z,54.30
2019-05-23T11:03:41.689Z,54.00
2019-05-23T11:06:16.311Z,52.00
2019-05-23T11:08:42.836Z,52.70
2019-05-23T11:11:14.434Z,50.50
2019-05-23T11:13:44.420Z,52.90
2019-05-23T11:16:13.585Z,52.30
2019-05-23T11:18:42.885Z,52.80
2019-05-23T11:21:12.291Z,53.70
2019-05-23T11:23:46.470Z,54.20
2019-05-23T11:26:16.039Z,55.30
2019-05-23T11:28:46.546Z,58.20
2019-05-23T11:31:16.782Z,55.50
2019-05-23T11:33:45.791Z,54.00
2019-05-23T11:36:31.879Z,56.10
2019-05-23T11:38:46.203Z,55.10
2019-05-23T11:41:15.502Z,57.10
2019-05-23T11:43:45.587Z,55.60
2019-05-23T11:46:21.774Z,56.10
2019-05-23T11:48:51.247Z,57.80
2019-05-23T11:51:25.255Z,56.70
2019-05-23T11:54:07.083Z,55.50
2019-05-23T11:56:22.570Z,57.60
2019-05-23T11:58:51.744Z,57.40
2019-05-23T12:01:40.729Z,56.80
2019-05-23T12:04:17.591Z,55.40
2019-05-23T12:06:59.442Z,54.70
2019-05-23T12:09:28.918Z,56.30
2019-05-23T12:11:57.832Z,55.20
2019-05-23T12:14:26.764Z,56.60
2019-05-23T12:16:57.298Z,55.60
2019-05-23T12:19:26.430Z,56.00
2019-05-23T12:21:55.868Z,56.50
2019-05-23T12:24:25.310Z,57.40
2019-05-23T12:26:54.318Z,57.40
2019-05-23T12:29:23.378Z,58.40
2019-05-23T12:31:52.313Z,57.40
2019-05-23T12:34:21.537Z,57.40
2019-05-23T12:36:50.982Z,57.00
2019-05-23T12:39:20.043Z,58.70
2019-05-23T12:41:49.037Z,57.60
2019-05-23T12:44:18.415Z,57.20
2019-05-23T12:46:47.535Z,57.90
2019-05-23T12:49:22.245Z,60.00
2019-05-23T12:51:51.742Z,58.70
2019-05-23T12:54:20.960Z,56.60
2019-05-23T12:56:50.116Z,59.20
2019-05-23T12:59:19.203Z,62.10
2019-05-23T13:01:50.431Z,57.20
2019-05-23T13:04:20.330Z,58.00
2019-05-23T13:06:49.742Z,59.40
2019-05-23T13:09:18.699Z,58.70
2019-05-23T13:11:47.546Z,59.80
2019-05-23T13:14:17.181Z,60.60
2019-05-23T13:16:46.253Z,59.10
2019-05-23T13:19:15.868Z,61.00
2019-05-23T13:21:44.865Z,59.00
2019-05-23T13:24:13.967Z,60.20
2019-05-23T13:26:43.196Z,62.00
2019-05-23T13:29:12.183Z,59.80
2019-05-23T13:31:41.204Z,60.70
2019-05-23T13:34:10.215Z,61.00
2019-05-23T13:36:39.201Z,61.60
2019-05-23T13:39:10.507Z,62.30
2019-05-23T13:41:40.093Z,60.10
2019-05-23T13:44:09.084Z,59.80
2019-05-23T13:46:38.503Z,62.20
2019-05-23T13:49:07.794Z,61.30
2019-05-23T13:51:36.746Z,60.80
2019-05-23T13:54:05.772Z,62.00
2019-05-23T13:56:34.698Z,61.10
2019-05-23T13:59:03.683Z,61.70
2019-05-23T14:01:33.273Z,61.60
2019-05-23T14:04:02.465Z,61.20
2019-05-23T14:06:31.465Z,62.00
2019-05-23T14:09:00.409Z,62.80
2019-05-23T14:11:29.329Z,61.30
2019-05-23T14:14:01.573Z,61.50
2019-05-23T14:16:31.609Z,62.40
2019-05-23T14:19:01.283Z,62.00
2019-05-23T14:21:34.046Z,62.00
2019-05-23T14:24:03.136Z,64.30
2019-05-23T14:26:37.665Z,62.70
2019-05-23T14:29:06.751Z,63.60
2019-05-23T14:31:42.533Z,64.00
2019-05-23T14:34:14.165Z,63.50
2019-05-23T14:36:54.089Z,63.30
2019-05-23T14:39:40.764Z,64.20
2019-05-23T14:42:35.429Z,62.80
2019-05-23T14:45:06.521Z,65.10
2019-05-23T14:47:46.013Z,64.30
2019-05-23T14:50:34.094Z,63.20
2019-05-23T14:53:04.249Z,65.10
2019-05-23T14:55:33.858Z,63.70
2019-05-23T14:58:02.789Z,66.40
2019-05-23T15:00:32.847Z,67.20
2019-05-23T15:03:01.799Z,67.30
2019-05-23T15:05:31.063Z,66.30
2019-05-23T15:07:59.985Z,65.40
2019-05-23T15:10:29.481Z,65.10
2019-05-23T15:12:58.515Z,65.80
2019-05-23T15:15:27.929Z,65.90
2019-05-23T15:17:56.797Z,65.90
2019-05-23T15:20:26.554Z,64.60
2019-05-23T15:22:59.559Z,65.70
2019-05-23T15:25:26.330Z,66.60
2019-05-23T15:27:55.496Z,66.90
2019-05-23T15:30:25.497Z,66.30
2019-05-23T15:32:54.697Z,67.30
2019-05-23T15:35:23.769Z,67.50
2019-05-23T15:37:53.003Z,66.20
2019-05-23T15:40:22.956Z,67.20
2019-05-23T15:42:51.945Z,65.30
2019-05-23T15:45:21.221Z,67.50
2019-05-23T15:47:50.150Z,66.20
2019-05-23T15:50:21.916Z,67.90
2019-05-23T15:52:59.161Z,69.60
2019-05-23T15:55:35.782Z,67.60
2019-05-23T15:58:15.305Z,66.80
2019-05-23T16:01:01.213Z,66.50
2019-05-23T16:03:42.821Z,67.60
2019-05-23T16:06:14.759Z,65.10
2019-05-23T16:08:43.953Z,68.20
2019-05-23T16:11:16.672Z,69.90
2019-05-23T16:13:44.157Z,67.50
2019-05-23T16:16:13.325Z,68.10
2019-05-23T16:18:42.446Z,68.40
2019-05-23T16:21:13.073Z,66.70
2019-05-23T16:23:41.932Z,67.30
2019-05-23T16:26:11.778Z,65.70
2019-05-23T16:28:41.026Z,66.10
2019-05-23T16:31:10.078Z,65.40
2019-05-23T16:33:39.021Z,65.70
2019-05-23T16:36:08.717Z,67.90
2019-05-23T16:38:37.649Z,66.40
2019-05-23T16:41:06.488Z,65.40
2019-05-23T16:43:35.481Z,65.00
2019-05-23T16:46:04.669Z,66.70
2019-05-23T16:48:34.238Z,67.80
2019-05-23T16:51:03.228Z,65.70
2019-05-23T16:53:35.716Z,67.10
2019-05-23T16:56:08.297Z,67.60
2019-05-23T16:58:46.002Z,66.80
2019-05-23T17:01:28.632Z,66.90
2019-05-23T17:04:06.399Z,66.90
2019-05-23T17:06:44.461Z,67.10
2019-05-23T17:09:38.701Z,68.50
2019-05-23T17:12:26.857Z,68.50
2019-05-23T17:15:00.414Z,69.10
2019-05-23T17:18:01.262Z,69.50
2019-05-23T17:20:36.900Z,68.90
2019-05-23T17:23:16.149Z,68.30
2019-05-23T17:26:02.061Z,69.20
2019-05-23T17:28:42.922Z,68.40
2019-05-23T17:31:17.561Z,68.60
2019-05-23T17:33:46.881Z,71.40
2019-05-23T17:36:15.939Z,70.90
2019-05-23T17:38:45.244Z,70.00
2019-05-23T17:41:14.948Z,70.60
2019-05-23T17:43:43.968Z,72.10
2019-05-23T17:46:12.924Z,71.60
2019-05-23T17:48:42.337Z,71.90
2019-05-23T17:51:11.324Z,74.00
2019-05-23T17:53:40.248Z,73.90
2019-05-23T17:56:09.845Z,71.30
2019-05-23T17:58:40.057Z,71.10
2019-05-23T18:01:09.224Z,73.00
2019-05-23T18:03:38.454Z,75.40
2019-05-23T18:06:07.560Z,72.30
2019-05-23T18:08:37.621Z,74.00
2019-05-23T18:11:06.612Z,73.10
2019-05-23T18:13:35.533Z,72.50
2019-05-23T18:16:05.350Z,72.40
2019-05-23T18:18:34.865Z,73.90
2019-05-23T18:21:04.457Z,73.20
2019-05-23T18:23:34.293Z,75.30
2019-05-23T18:26:03.305Z,75.80
2019-05-23T18:28:32.789Z,77.20
2019-05-23T18:31:11.353Z,77.80
2019-05-23T18:33:41.594Z,77.10
2019-05-23T18:36:10.601Z,75.90
2019-05-23T18:38:40.010Z,77.60
2019-05-23T18:41:09.985Z,79.50
2019-05-23T18:43:39.145Z,79.30
2019-05-23T18:46:12.970Z,79.10
2019-05-23T18:48:42.384Z,80.80
2019-05-23T18:51:11.391Z,83.70
2019-05-23T18:53:40.379Z,89.10
2019-05-23T18:56:09.442Z,91.80
2019-05-23T18:58:38.423Z,98.50
2019-05-23T19:01:16.594Z,99.90
2019-05-23T19:03:45.969Z,99.90
2019-05-23T19:06:15.372Z,99.90
2019-05-23T19:08:44.585Z,99.90
2019-05-23T19:11:20.854Z,99.90
2019-05-23T19:13:44.621Z,99.90
2019-05-23T19:16:14.054Z,99.90
2019-05-23T19:18:43.244Z,99.90
2019-05-23T19:21:13.022Z,99.90
2019-05-23T19:23:42.901Z,99.90
2019-05-23T19:26:12.408Z,99.90
2019-05-23T19:28:43.032Z,99.90
2019-05-23T19:31:12.528Z,99.90
2019-05-23T19:33:42.380Z,99.90
2019-05-23T19:36:11.949Z,99.90
2019-05-23T19:38:41.304Z,99.90
2019-05-23T19:41:12.543Z,99.90
2019-05-23T19:43:42.778Z,99.90
2019-05-23T19:46:12.978Z,99.90
2019-05-23T19:48:43.214Z,99.90
2019-05-23T19:51:12.831Z,99.90
2019-05-23T19:53:42.393Z,99.90
2019-05-23T19:56:11.944Z,99.90
2019-05-23T19:58:41.454Z,99.90
2019-05-23T20:01:10.722Z,99.90
2019-05-23T20:03:39.657Z,99.90
2019-05-23T20:06:10.812Z,99.90
2019-05-23T20:08:40.435Z,99.90
2019-05-23T20:11:09.818Z,99.90
2019-05-23T20:13:39.826Z,99.90
2019-05-23T20:16:09.113Z,99.90
2019-05-23T20:18:38.581Z,99.90
2019-05-23T20:21:07.690Z,99.90
2019-05-23T20:23:37.585Z,99.90
2019-05-23T20:26:08.312Z,99.90
2019-05-23T20:28:40.033Z,99.90
2019-05-23T20:31:09.560Z,99.90
2019-05-23T20:33:39.722Z,99.90
2019-05-23T20:36:12.309Z,99.90
2019-05-23T20:38:41.889Z,99.90
2019-05-23T20:41:11.380Z,99.90
2019-05-23T20:43:40.597Z,99.90
2019-05-23T20:46:09.548Z,99.90
2019-05-23T20:48:39.832Z,99.90
2019-05-23T20:51:08.982Z,99.90
2019-05-23T20:53:38.573Z,99.90
2019-05-23T20:56:08.265Z,99.90
2019-05-23T20:58:37.370Z,99.90
2019-05-23T21:01:11.246Z,99.90
2019-05-23T21:03:40.718Z,99.90
2019-05-23T21:06:10.983Z,99.90
2019-05-23T21:08:39.949Z,99.90
2019-05-23T21:11:08.832Z,99.90
2019-05-23T21:13:37.833Z,99.90
2019-05-23T21:16:08.740Z,99.90
2019-05-23T21:18:37.925Z,99.90
2019-05-23T21:21:07.271Z,99.90
2019-05-23T21:23:36.781Z,99.90
2019-05-23T21:26:06.802Z,99.90
2019-05-23T21:28:36.309Z,99.90
2019-05-23T21:31:09.547Z,99.90
2019-05-23T21:33:39.546Z,99.90
2019-05-23T21:36:08.798Z,99.90
2019-05-23T21:38:38.577Z,99.90
2019-05-23T21:41:07.726Z,99.90
2019-05-23T21:43:38.119Z,99.90
2019-05-23T21:46:07.185Z,99.90
2019-05-23T21:48:36.560Z,99.90
2019-05-23T21:51:05.841Z,99.90
2019-05-23T21:53:34.965Z,99.90
2019-05-23T21:56:03.915Z,99.90
2019-05-23T21:58:32.827Z,99.90
2019-05-23T22:01:29.740Z,99.90
2019-05-23T22:04:30.402Z,99.90
2019-05-23T22:07:04.338Z,99.90
2019-05-23T22:09:33.757Z,99.90
2019-05-23T22:12:04.407Z,99.90
2019-05-23T22:14:33.758Z,99.90
2019-05-23T22:17:02.689Z,99.90
2019-05-23T22:19:31.988Z,99.90
2019-05-23T22:22:01.911Z,99.90
2019-05-23T22:24:31.665Z,99.90
2019-05-23T22:27:00.701Z,99.90
2019-05-23T22:29:29.968Z,99.90
2019-05-23T22:31:58.810Z,99.90
2019-05-23T22:34:45.730Z,99.90
2019-05-23T22:37:22.597Z,99.90
2019-05-23T22:39:51.483Z,99.90
2019-05-23T22:42:21.069Z,99.90
2019-05-23T22:44:50.865Z,99.90
2019-05-23T22:47:19.974Z,99.90
2019-05-23T22:49:49.060Z,99.90
2019-05-23T22:52:17.893Z,99.90
2019-05-23T22:54:46.839Z,99.90
2019-05-23T22:57:15.825Z,99.90
2019-05-23T22:59:44.757Z,99.90
2019-05-23T23:02:15.896Z,99.90
2019-05-23T23:04:44.753Z,99.90
2019-05-23T23:07:14.240Z,99.90
2019-05-23T23:09:43.101Z,99.90
2019-05-23T23:12:12.092Z,99.90
2019-05-23T23:14:41.017Z,99.90
2019-05-23T23:17:10.467Z,99.90
2019-05-23T23:19:39.965Z,99.90
2019-05-23T23:22:11.142Z,99.90
2019-05-23T23:24:40.241Z,99.90
2019-05-23T23:27:09.273Z,99.90
2019-05-23T23:29:38.332Z,99.90
2019-05-23T23:32:07.553Z,99.90
2019-05-23T23:34:36.879Z,99.90
2019-05-23T23:37:05.805Z,99.90
2019-05-23T23:39:34.799Z,99.90
2019-05-23T23:42:05.295Z,99.90
2019-05-23T23:44:36.468Z,99.90
2019-05-23T23:47:24.116Z,99.90
2019-05-23T23:50:11.410Z,99.90
2019-05-23T23:52:58.509Z,99.90
2019-05-23T23:55:45.732Z,99.90
2019-05-23T23:58:13.884Z,99.90
